sensor_id;sensor_type;location;lat;lon;timestamp;P1;durP1;ratioP1;P2;durP2;ratioP2
59998;SDS011;45859;51.378;6.736;2023-05-07T00:02:03;5.37;;;4.23;;
59998;SDS011;45859;51.378;6.736;2023-05-07T00:04:28;5.70;;;4.80;;
59998;SDS011;45859;51.378;6.736;2023-05-07T00:07:00;7.80;;;4.47;;
59998;SDS011;45859;51.378;6.736;2023-05-07T00:09:26;5.03;;;4.50;;
59998;SDS011;45859;51.378;6.736;2023-05-07T00:11:52;4.90;;;4.40;;
59998;SDS011;45859;51.378;6.736;2023-05-07T00:14:18;5.50;;;5.00;;
59998;SDS011;45859;51.378;6.736;2023-05-07T00:16:43;5.80;;;4.27;;
59998;SDS011;45859;51.378;6.736;2023-05-07T00:19:09;4.90;;;4.43;;
59998;SDS011;45859;51.378;6.736;2023-05-07T00:21:35;5.37;;;4.67;;
59998;SDS011;45859;51.378;6.736;2023-05-07T00:24:00;5.50;;;4.40;;
59998;SDS011;45859;51.378;6.736;2023-05-07T00:26:26;6.70;;;4.80;;
59998;SDS011;45859;51.378;6.736;2023-05-07T00:28:52;4.80;;;4.30;;
59998;SDS011;45859;51.378;6.736;2023-05-07T00:31:17;4.70;;;4.00;;
59998;SDS011;45859;51.378;6.736;2023-05-07T00:33:43;5.53;;;3.70;;
59998;SDS011;45859;51.378;6.736;2023-05-07T00:36:09;7.03;;;3.80;;
59998;SDS011;45859;51.378;6.736;2023-05-07T00:38:34;4.40;;;3.90;;
59998;SDS011;45859;51.378;6.736;2023-05-07T00:41:00;6.20;;;4.20;;
59998;SDS011;45859;51.378;6.736;2023-05-07T00:43:27;5.80;;;4.57;;
59998;SDS011;45859;51.378;6.736;2023-05-07T00:45:53;5.30;;;4.47;;
59998;SDS011;45859;51.378;6.736;2023-05-07T00:48:19;5.20;;;4.47;;
59998;SDS011;45859;51.378;6.736;2023-05-07T00:50:45;5.27;;;4.50;;
59998;SDS011;45859;51.378;6.736;2023-05-07T00:53:12;7.87;;;5.00;;
59998;SDS011;45859;51.378;6.736;2023-05-07T00:55:38;6.33;;;4.40;;
59998;SDS011;45859;51.378;6.736;2023-05-07T00:58:04;6.77;;;5.00;;
59998;SDS011;45859;51.378;6.736;2023-05-07T01:00:30;4.90;;;4.40;;
59998;SDS011;45859;51.378;6.736;2023-05-07T01:02:56;5.67;;;5.03;;
59998;SDS011;45859;51.378;6.736;2023-05-07T01:05:23;5.67;;;4.77;;
59998;SDS011;45859;51.378;6.736;2023-05-07T01:07:50;5.87;;;5.37;;
59998;SDS011;45859;51.378;6.736;2023-05-07T01:10:17;5.60;;;5.00;;
59998;SDS011;45859;51.378;6.736;2023-05-07T01:12:43;5.73;;;5.23;;
59998;SDS011;45859;51.378;6.736;2023-05-07T01:15:10;5.77;;;5.10;;
59998;SDS011;45859;51.378;6.736;2023-05-07T01:17:37;5.87;;;5.33;;
59998;SDS011;45859;51.378;6.736;2023-05-07T01:20:07;5.73;;;5.13;;
59998;SDS011;45859;51.378;6.736;2023-05-07T01:22:35;6.27;;;5.67;;
59998;SDS011;45859;51.378;6.736;2023-05-07T01:25:05;6.20;;;5.27;;
59998;SDS011;45859;51.378;6.736;2023-05-07T01:27:35;6.93;;;6.13;;
59998;SDS011;45859;51.378;6.736;2023-05-07T01:30:02;6.83;;;5.60;;
59998;SDS011;45859;51.378;6.736;2023-05-07T01:32:43;7.70;;;5.90;;
59998;SDS011;45859;51.378;6.736;2023-05-07T01:35:18;7.00;;;6.30;;
59998;SDS011;45859;51.378;6.736;2023-05-07T01:37:46;7.00;;;5.93;;
59998;SDS011;45859;51.378;6.736;2023-05-07T01:40:12;6.97;;;6.27;;
59998;SDS011;45859;51.378;6.736;2023-05-07T01:42:39;6.17;;;5.57;;
59998;SDS011;45859;51.378;6.736;2023-05-07T01:45:06;6.60;;;5.80;;
59998;SDS011;45859;51.378;6.736;2023-05-07T01:47:32;6.77;;;5.93;;
59998;SDS011;45859;51.378;6.736;2023-05-07T01:49:59;6.70;;;6.03;;
59998;SDS011;45859;51.378;6.736;2023-05-07T01:52:25;6.53;;;5.93;;
59998;SDS011;45859;51.378;6.736;2023-05-07T01:54:52;8.03;;;6.03;;
59998;SDS011;45859;51.378;6.736;2023-05-07T01:57:18;8.17;;;6.00;;
59998;SDS011;45859;51.378;6.736;2023-05-07T01:59:43;7.03;;;6.30;;
59998;SDS011;45859;51.378;6.736;2023-05-07T02:02:09;17.00;;;6.70;;
59998;SDS011;45859;51.378;6.736;2023-05-07T02:04:35;10.63;;;7.17;;
59998;SDS011;45859;51.378;6.736;2023-05-07T02:07:01;7.13;;;6.43;;
59998;SDS011;45859;51.378;6.736;2023-05-07T02:09:27;9.43;;;7.27;;
59998;SDS011;45859;51.378;6.736;2023-05-07T02:11:53;8.23;;;6.80;;
59998;SDS011;45859;51.378;6.736;2023-05-07T02:14:18;7.90;;;6.90;;
59998;SDS011;45859;51.378;6.736;2023-05-07T02:16:45;8.07;;;7.27;;
59998;SDS011;45859;51.378;6.736;2023-05-07T02:19:11;10.53;;;7.03;;
59998;SDS011;45859;51.378;6.736;2023-05-07T02:21:36;7.83;;;7.13;;
59998;SDS011;45859;51.378;6.736;2023-05-07T02:24:02;9.50;;;8.60;;
59998;SDS011;45859;51.378;6.736;2023-05-07T02:26:28;10.70;;;9.60;;
59998;SDS011;45859;51.378;6.736;2023-05-07T02:28:53;7.77;;;7.07;;
59998;SDS011;45859;51.378;6.736;2023-05-07T02:31:19;7.53;;;6.83;;
59998;SDS011;45859;51.378;6.736;2023-05-07T02:33:45;8.00;;;7.30;;
59998;SDS011;45859;51.378;6.736;2023-05-07T02:36:11;8.50;;;7.17;;
59998;SDS011;45859;51.378;6.736;2023-05-07T02:38:37;8.63;;;7.73;;
59998;SDS011;45859;51.378;6.736;2023-05-07T02:41:03;11.40;;;10.27;;
59998;SDS011;45859;51.378;6.736;2023-05-07T02:43:29;11.67;;;10.53;;
59998;SDS011;45859;51.378;6.736;2023-05-07T02:46:01;12.50;;;11.30;;
59998;SDS011;45859;51.378;6.736;2023-05-07T02:48:28;11.17;;;10.17;;
59998;SDS011;45859;51.378;6.736;2023-05-07T02:50:54;11.00;;;9.87;;
59998;SDS011;45859;51.378;6.736;2023-05-07T02:53:19;11.73;;;10.50;;
59998;SDS011;45859;51.378;6.736;2023-05-07T02:55:45;10.40;;;9.30;;
59998;SDS011;45859;51.378;6.736;2023-05-07T02:58:11;11.97;;;10.87;;
59998;SDS011;45859;51.378;6.736;2023-05-07T03:00:36;13.07;;;11.27;;
59998;SDS011;45859;51.378;6.736;2023-05-07T03:03:02;11.07;;;10.00;;
59998;SDS011;45859;51.378;6.736;2023-05-07T03:05:28;11.43;;;10.33;;
59998;SDS011;45859;51.378;6.736;2023-05-07T03:07:53;11.63;;;9.97;;
59998;SDS011;45859;51.378;6.736;2023-05-07T03:10:19;11.03;;;9.90;;
59998;SDS011;45859;51.378;6.736;2023-05-07T03:12:45;11.47;;;10.27;;
59998;SDS011;45859;51.378;6.736;2023-05-07T03:15:11;11.27;;;10.17;;
59998;SDS011;45859;51.378;6.736;2023-05-07T03:17:37;11.47;;;10.27;;
59998;SDS011;45859;51.378;6.736;2023-05-07T03:20:03;11.23;;;10.03;;
59998;SDS011;45859;51.378;6.736;2023-05-07T03:22:29;11.60;;;10.00;;
59998;SDS011;45859;51.378;6.736;2023-05-07T03:24:55;10.93;;;10.03;;
59998;SDS011;45859;51.378;6.736;2023-05-07T03:27:21;11.43;;;10.23;;
59998;SDS011;45859;51.378;6.736;2023-05-07T03:29:47;12.47;;;9.47;;
59998;SDS011;45859;51.378;6.736;2023-05-07T03:32:12;10.83;;;9.83;;
59998;SDS011;45859;51.378;6.736;2023-05-07T03:34:39;10.53;;;9.53;;
59998;SDS011;45859;51.378;6.736;2023-05-07T03:37:04;10.33;;;9.33;;
59998;SDS011;45859;51.378;6.736;2023-05-07T03:39:30;10.70;;;8.73;;
59998;SDS011;45859;51.378;6.736;2023-05-07T03:41:57;9.57;;;8.40;;
59998;SDS011;45859;51.378;6.736;2023-05-07T03:44:23;8.73;;;7.93;;
59998;SDS011;45859;51.378;6.736;2023-05-07T03:46:48;8.53;;;7.73;;
59998;SDS011;45859;51.378;6.736;2023-05-07T03:49:14;9.83;;;8.23;;
59998;SDS011;45859;51.378;6.736;2023-05-07T03:51:40;9.17;;;7.67;;
59998;SDS011;45859;51.378;6.736;2023-05-07T03:54:05;8.47;;;7.50;;
59998;SDS011;45859;51.378;6.736;2023-05-07T03:56:31;8.57;;;7.70;;
59998;SDS011;45859;51.378;6.736;2023-05-07T03:58:57;9.57;;;7.77;;
59998;SDS011;45859;51.378;6.736;2023-05-07T04:01:23;9.57;;;8.17;;
59998;SDS011;45859;51.378;6.736;2023-05-07T04:03:48;8.63;;;7.77;;
59998;SDS011;45859;51.378;6.736;2023-05-07T04:06:15;8.63;;;7.70;;
59998;SDS011;45859;51.378;6.736;2023-05-07T04:08:42;8.13;;;7.33;;
59998;SDS011;45859;51.378;6.736;2023-05-07T04:11:08;7.73;;;7.03;;
59998;SDS011;45859;51.378;6.736;2023-05-07T04:13:34;9.07;;;7.37;;
59998;SDS011;45859;51.378;6.736;2023-05-07T04:16:00;8.20;;;7.40;;
59998;SDS011;45859;51.378;6.736;2023-05-07T04:18:28;7.53;;;6.80;;
59998;SDS011;45859;51.378;6.736;2023-05-07T04:20:54;7.80;;;6.80;;
59998;SDS011;45859;51.378;6.736;2023-05-07T04:23:19;7.53;;;6.83;;
59998;SDS011;45859;51.378;6.736;2023-05-07T04:25:45;7.87;;;7.17;;
59998;SDS011;45859;51.378;6.736;2023-05-07T04:28:11;7.63;;;6.77;;
59998;SDS011;45859;51.378;6.736;2023-05-07T04:30:37;8.83;;;7.13;;
59998;SDS011;45859;51.378;6.736;2023-05-07T04:33:03;7.43;;;6.70;;
59998;SDS011;45859;51.378;6.736;2023-05-07T04:35:29;7.50;;;6.70;;
59998;SDS011;45859;51.378;6.736;2023-05-07T04:37:55;7.03;;;6.43;;
59998;SDS011;45859;51.378;6.736;2023-05-07T04:40:20;6.43;;;5.80;;
59998;SDS011;45859;51.378;6.736;2023-05-07T04:42:46;8.23;;;6.33;;
59998;SDS011;45859;51.378;6.736;2023-05-07T04:45:12;6.90;;;5.80;;
59998;SDS011;45859;51.378;6.736;2023-05-07T04:47:38;5.50;;;5.00;;
59998;SDS011;45859;51.378;6.736;2023-05-07T04:50:04;8.23;;;5.43;;
59998;SDS011;45859;51.378;6.736;2023-05-07T04:52:31;9.03;;;6.00;;
59998;SDS011;45859;51.378;6.736;2023-05-07T04:54:58;5.87;;;5.30;;
59998;SDS011;45859;51.378;6.736;2023-05-07T04:57:24;6.13;;;5.20;;
59998;SDS011;45859;51.378;6.736;2023-05-07T04:59:51;5.60;;;4.87;;
59998;SDS011;45859;51.378;6.736;2023-05-07T05:02:17;5.20;;;4.50;;
59998;SDS011;45859;51.378;6.736;2023-05-07T05:04:43;5.70;;;4.33;;
59998;SDS011;45859;51.378;6.736;2023-05-07T05:07:08;8.33;;;4.60;;
59998;SDS011;45859;51.378;6.736;2023-05-07T05:09:34;4.97;;;4.43;;
59998;SDS011;45859;51.378;6.736;2023-05-07T05:12:00;5.80;;;4.57;;
59998;SDS011;45859;51.378;6.736;2023-05-07T05:14:25;5.00;;;4.50;;
59998;SDS011;45859;51.378;6.736;2023-05-07T05:16:51;5.57;;;4.40;;
59998;SDS011;45859;51.378;6.736;2023-05-07T05:19:17;7.33;;;5.40;;
59998;SDS011;45859;51.378;6.736;2023-05-07T05:21:42;6.60;;;6.00;;
59998;SDS011;45859;51.378;6.736;2023-05-07T05:24:08;6.17;;;5.57;;
59998;SDS011;45859;51.378;6.736;2023-05-07T05:26:34;7.80;;;6.23;;
59998;SDS011;45859;51.378;6.736;2023-05-07T05:29:00;6.83;;;6.13;;
59998;SDS011;45859;51.378;6.736;2023-05-07T05:31:25;5.93;;;5.40;;
59998;SDS011;45859;51.378;6.736;2023-05-07T05:33:51;5.97;;;5.43;;
59998;SDS011;45859;51.378;6.736;2023-05-07T05:36:17;6.17;;;5.57;;
59998;SDS011;45859;51.378;6.736;2023-05-07T05:38:43;6.37;;;5.77;;
59998;SDS011;45859;51.378;6.736;2023-05-07T05:41:09;5.80;;;5.30;;
59998;SDS011;45859;51.378;6.736;2023-05-07T05:43:35;5.97;;;5.40;;
59998;SDS011;45859;51.378;6.736;2023-05-07T05:46:01;7.00;;;5.40;;
59998;SDS011;45859;51.378;6.736;2023-05-07T05:48:26;5.87;;;5.23;;
59998;SDS011;45859;51.378;6.736;2023-05-07T05:50:53;5.93;;;5.05;;
59998;SDS011;45859;51.378;6.736;2023-05-07T05:53:19;6.50;;;4.97;;
59998;SDS011;45859;51.378;6.736;2023-05-07T05:55:45;5.88;;;4.72;;
59998;SDS011;45859;51.378;6.736;2023-05-07T05:58:11;5.20;;;4.70;;
59998;SDS011;45859;51.378;6.736;2023-05-07T06:00:37;5.03;;;4.40;;
59998;SDS011;45859;51.378;6.736;2023-05-07T06:03:03;5.28;;;4.78;;
59998;SDS011;45859;51.378;6.736;2023-05-07T06:05:28;5.70;;;4.47;;
59998;SDS011;45859;51.378;6.736;2023-05-07T06:07:54;5.15;;;4.65;;
59998;SDS011;45859;51.378;6.736;2023-05-07T06:10:19;5.05;;;4.55;;
59998;SDS011;45859;51.378;6.736;2023-05-07T06:12:45;4.43;;;4.03;;
59998;SDS011;45859;51.378;6.736;2023-05-07T06:15:11;5.18;;;4.68;;
59998;SDS011;45859;51.378;6.736;2023-05-07T06:17:37;5.03;;;4.53;;
59998;SDS011;45859;51.378;6.736;2023-05-07T06:20:02;5.05;;;3.92;;
59998;SDS011;45859;51.378;6.736;2023-05-07T06:22:28;6.57;;;4.32;;
59998;SDS011;45859;51.378;6.736;2023-05-07T06:24:54;4.82;;;4.30;;
59998;SDS011;45859;51.378;6.736;2023-05-07T06:27:20;4.28;;;3.88;;
59998;SDS011;45859;51.378;6.736;2023-05-07T06:29:47;5.30;;;4.22;;
59998;SDS011;45859;51.378;6.736;2023-05-07T06:32:13;4.90;;;4.30;;
59998;SDS011;45859;51.378;6.736;2023-05-07T06:34:39;5.97;;;4.72;;
59998;SDS011;45859;51.378;6.736;2023-05-07T06:37:06;4.93;;;4.43;;
59998;SDS011;45859;51.378;6.736;2023-05-07T06:39:32;4.20;;;3.80;;
59998;SDS011;45859;51.378;6.736;2023-05-07T06:41:58;5.65;;;4.60;;
59998;SDS011;45859;51.378;6.736;2023-05-07T06:44:25;4.28;;;3.88;;
59998;SDS011;45859;51.378;6.736;2023-05-07T06:46:50;4.07;;;3.65;;
59998;SDS011;45859;51.378;6.736;2023-05-07T06:49:16;5.38;;;4.07;;
59998;SDS011;45859;51.378;6.736;2023-05-07T06:51:42;3.72;;;3.30;;
59998;SDS011;45859;51.378;6.736;2023-05-07T06:54:08;4.05;;;3.30;;
59998;SDS011;45859;51.378;6.736;2023-05-07T06:56:33;3.47;;;3.05;;
59998;SDS011;45859;51.378;6.736;2023-05-07T06:59:02;4.43;;;3.25;;
59998;SDS011;45859;51.378;6.736;2023-05-07T07:01:28;4.47;;;3.55;;
59998;SDS011;45859;51.378;6.736;2023-05-07T07:03:54;5.78;;;3.00;;
59998;SDS011;45859;51.378;6.736;2023-05-07T07:06:20;2.65;;;2.35;;
59998;SDS011;45859;51.378;6.736;2023-05-07T07:08:46;3.97;;;2.47;;
59998;SDS011;45859;51.378;6.736;2023-05-07T07:11:11;3.42;;;2.30;;
59998;SDS011;45859;51.378;6.736;2023-05-07T07:13:37;3.15;;;2.30;;
59998;SDS011;45859;51.378;6.736;2023-05-07T07:16:03;3.45;;;2.50;;
59998;SDS011;45859;51.378;6.736;2023-05-07T07:18:29;2.58;;;2.25;;
59998;SDS011;45859;51.378;6.736;2023-05-07T07:20:55;4.22;;;2.50;;
59998;SDS011;45859;51.378;6.736;2023-05-07T07:23:20;3.25;;;2.22;;
59998;SDS011;45859;51.378;6.736;2023-05-07T07:25:46;5.30;;;2.25;;
59998;SDS011;45859;51.378;6.736;2023-05-07T07:28:12;2.25;;;2.05;;
59998;SDS011;45859;51.378;6.736;2023-05-07T07:30:38;3.58;;;2.53;;
59998;SDS011;45859;51.378;6.736;2023-05-07T07:33:04;4.05;;;2.45;;
59998;SDS011;45859;51.378;6.736;2023-05-07T07:35:30;2.20;;;2.00;;
59998;SDS011;45859;51.378;6.736;2023-05-07T07:37:57;2.60;;;1.88;;
59998;SDS011;45859;51.378;6.736;2023-05-07T07:40:22;2.65;;;1.75;;
59998;SDS011;45859;51.378;6.736;2023-05-07T07:42:48;2.17;;;1.60;;
59998;SDS011;45859;51.378;6.736;2023-05-07T07:45:14;3.15;;;2.00;;
59998;SDS011;45859;51.378;6.736;2023-05-07T07:47:40;2.25;;;1.90;;
59998;SDS011;45859;51.378;6.736;2023-05-07T07:50:06;2.30;;;1.50;;
59998;SDS011;45859;51.378;6.736;2023-05-07T07:52:32;2.30;;;1.60;;
59998;SDS011;45859;51.378;6.736;2023-05-07T07:54:58;2.72;;;1.80;;
59998;SDS011;45859;51.378;6.736;2023-05-07T07:57:24;2.78;;;1.60;;
59998;SDS011;45859;51.378;6.736;2023-05-07T07:59:50;1.65;;;1.50;;
59998;SDS011;45859;51.378;6.736;2023-05-07T08:02:16;3.92;;;1.75;;
59998;SDS011;45859;51.378;6.736;2023-05-07T08:04:42;1.60;;;1.50;;
59998;SDS011;45859;51.378;6.736;2023-05-07T08:07:11;2.17;;;1.38;;
59998;SDS011;45859;51.378;6.736;2023-05-07T08:09:38;1.92;;;1.38;;
59998;SDS011;45859;51.378;6.736;2023-05-07T08:12:04;2.10;;;1.58;;
59998;SDS011;45859;51.378;6.736;2023-05-07T08:14:31;1.50;;;1.38;;
59998;SDS011;45859;51.378;6.736;2023-05-07T08:16:56;3.25;;;1.38;;
59998;SDS011;45859;51.378;6.736;2023-05-07T08:19:22;1.98;;;1.45;;
59998;SDS011;45859;51.378;6.736;2023-05-07T08:21:48;2.03;;;1.30;;
59998;SDS011;45859;51.378;6.736;2023-05-07T08:24:14;1.55;;;1.45;;
59998;SDS011;45859;51.378;6.736;2023-05-07T08:26:40;1.63;;;1.52;;
59998;SDS011;45859;51.378;6.736;2023-05-07T08:29:06;1.67;;;1.50;;
59998;SDS011;45859;51.378;6.736;2023-05-07T08:31:32;1.63;;;1.17;;
59998;SDS011;45859;51.378;6.736;2023-05-07T08:33:58;3.35;;;1.88;;
59998;SDS011;45859;51.378;6.736;2023-05-07T08:36:24;2.47;;;1.70;;
59998;SDS011;45859;51.378;6.736;2023-05-07T08:38:50;2.55;;;1.30;;
59998;SDS011;45859;51.378;6.736;2023-05-07T08:41:16;1.42;;;1.10;;
59998;SDS011;45859;51.378;6.736;2023-05-07T08:43:42;3.65;;;1.60;;
59998;SDS011;45859;51.378;6.736;2023-05-07T08:46:17;4.63;;;1.50;;
59998;SDS011;45859;51.378;6.736;2023-05-07T08:48:44;1.42;;;1.33;;
59998;SDS011;45859;51.378;6.736;2023-05-07T08:51:14;1.52;;;1.30;;
59998;SDS011;45859;51.378;6.736;2023-05-07T08:53:41;1.90;;;1.30;;
59998;SDS011;45859;51.378;6.736;2023-05-07T08:56:10;2.28;;;1.70;;
59998;SDS011;45859;51.378;6.736;2023-05-07T08:58:37;1.90;;;1.27;;
59998;SDS011;45859;51.378;6.736;2023-05-07T09:01:09;1.33;;;1.23;;
59998;SDS011;45859;51.378;6.736;2023-05-07T09:03:38;1.77;;;1.30;;
59998;SDS011;45859;51.378;6.736;2023-05-07T09:06:05;1.95;;;1.38;;
59998;SDS011;45859;51.378;6.736;2023-05-07T09:08:34;1.70;;;1.58;;
59998;SDS011;45859;51.378;6.736;2023-05-07T09:11:01;2.13;;;1.45;;
59998;SDS011;45859;51.378;6.736;2023-05-07T09:13:27;2.50;;;1.33;;
59998;SDS011;45859;51.378;6.736;2023-05-07T09:15:54;1.63;;;1.25;;
59998;SDS011;45859;51.378;6.736;2023-05-07T09:18:20;1.95;;;1.08;;
59998;SDS011;45859;51.378;6.736;2023-05-07T09:20:46;2.50;;;1.20;;
59998;SDS011;45859;51.378;6.736;2023-05-07T09:23:12;2.10;;;1.17;;
59998;SDS011;45859;51.378;6.736;2023-05-07T09:25:38;3.03;;;1.10;;
59998;SDS011;45859;51.378;6.736;2023-05-07T09:28:04;2.15;;;1.20;;
59998;SDS011;45859;51.378;6.736;2023-05-07T09:30:32;1.40;;;1.27;;
59998;SDS011;45859;51.378;6.736;2023-05-07T09:32:58;3.05;;;1.10;;
59998;SDS011;45859;51.378;6.736;2023-05-07T09:35:25;2.30;;;1.10;;
59998;SDS011;45859;51.378;6.736;2023-05-07T09:37:55;1.10;;;0.88;;
59998;SDS011;45859;51.378;6.736;2023-05-07T09:40:25;4.97;;;1.30;;
59998;SDS011;45859;51.378;6.736;2023-05-07T09:42:53;3.10;;;1.42;;
59998;SDS011;45859;51.378;6.736;2023-05-07T09:45:22;1.42;;;1.02;;
59998;SDS011;45859;51.378;6.736;2023-05-07T09:47:55;1.30;;;0.88;;
59998;SDS011;45859;51.378;6.736;2023-05-07T09:52:55;2.95;;;1.30;;
59998;SDS011;45859;51.378;6.736;2023-05-07T09:55:22;2.95;;;1.27;;
59998;SDS011;45859;51.378;6.736;2023-05-07T09:57:52;1.13;;;0.98;;
59998;SDS011;45859;51.378;6.736;2023-05-07T10:00:19;1.35;;;1.00;;
59998;SDS011;45859;51.378;6.736;2023-05-07T10:02:49;1.98;;;1.38;;
59998;SDS011;45859;51.378;6.736;2023-05-07T10:05:21;1.30;;;1.10;;
59998;SDS011;45859;51.378;6.736;2023-05-07T10:10:13;1.85;;;1.08;;
59998;SDS011;45859;51.378;6.736;2023-05-07T10:12:40;1.33;;;0.95;;
59998;SDS011;45859;51.378;6.736;2023-05-07T10:15:07;1.63;;;1.17;;
59998;SDS011;45859;51.378;6.736;2023-05-07T10:17:40;2.92;;;1.40;;
59998;SDS011;45859;51.378;6.736;2023-05-07T10:20:06;4.40;;;1.10;;
59998;SDS011;45859;51.378;6.736;2023-05-07T10:22:43;1.73;;;1.40;;
59998;SDS011;45859;51.378;6.736;2023-05-07T10:25:21;3.00;;;1.45;;
59998;SDS011;45859;51.378;6.736;2023-05-07T10:27:48;2.22;;;1.40;;
59998;SDS011;45859;51.378;6.736;2023-05-07T10:32:55;1.20;;;1.10;;
59998;SDS011;45859;51.378;6.736;2023-05-07T10:35:30;1.52;;;1.30;;
59998;SDS011;45859;51.378;6.736;2023-05-07T10:38:01;1.88;;;1.35;;
59998;SDS011;45859;51.378;6.736;2023-05-07T10:40:27;1.80;;;1.10;;
59998;SDS011;45859;51.378;6.736;2023-05-07T10:42:56;3.42;;;1.45;;
59998;SDS011;45859;51.378;6.736;2023-05-07T10:45:24;1.95;;;1.00;;
59998;SDS011;45859;51.378;6.736;2023-05-07T10:50:37;1.80;;;1.30;;
59998;SDS011;45859;51.378;6.736;2023-05-07T10:55:46;1.70;;;1.30;;
59998;SDS011;45859;51.378;6.736;2023-05-07T11:00:56;2.95;;;1.20;;
59998;SDS011;45859;51.378;6.736;2023-05-07T11:03:24;2.55;;;1.17;;
59998;SDS011;45859;51.378;6.736;2023-05-07T11:08:57;1.55;;;1.10;;
59998;SDS011;45859;51.378;6.736;2023-05-07T11:17:06;1.83;;;1.10;;
59998;SDS011;45859;51.378;6.736;2023-05-07T11:27:31;1.52;;;0.98;;
59998;SDS011;45859;51.378;6.736;2023-05-07T11:29:57;1.15;;;0.90;;
59998;SDS011;45859;51.378;6.736;2023-05-07T11:32:24;2.22;;;1.08;;
59998;SDS011;45859;51.378;6.736;2023-05-07T11:34:51;3.88;;;1.10;;
59998;SDS011;45859;51.378;6.736;2023-05-07T11:37:18;4.90;;;1.10;;
59998;SDS011;45859;51.378;6.736;2023-05-07T11:39:45;1.52;;;1.10;;
59998;SDS011;45859;51.378;6.736;2023-05-07T11:44:56;1.65;;;1.00;;
59998;SDS011;45859;51.378;6.736;2023-05-07T11:47:22;1.48;;;1.02;;
59998;SDS011;45859;51.378;6.736;2023-05-07T11:49:49;2.30;;;1.10;;
59998;SDS011;45859;51.378;6.736;2023-05-07T11:52:16;1.00;;;0.90;;
59998;SDS011;45859;51.378;6.736;2023-05-07T11:54:52;2.30;;;1.25;;
59998;SDS011;45859;51.378;6.736;2023-05-07T11:57:23;2.20;;;1.35;;
59998;SDS011;45859;51.378;6.736;2023-05-07T11:59:56;2.35;;;1.50;;
59998;SDS011;45859;51.378;6.736;2023-05-07T12:02:22;2.75;;;1.48;;
59998;SDS011;45859;51.378;6.736;2023-05-07T12:04:53;1.67;;;1.58;;
59998;SDS011;45859;51.378;6.736;2023-05-07T12:07:19;2.45;;;1.55;;
59998;SDS011;45859;51.378;6.736;2023-05-07T12:09:46;2.70;;;1.67;;
59998;SDS011;45859;51.378;6.736;2023-05-07T12:12:12;2.08;;;1.88;;
59998;SDS011;45859;51.378;6.736;2023-05-07T12:14:44;2.13;;;1.60;;
59998;SDS011;45859;51.378;6.736;2023-05-07T12:19:38;2.33;;;1.50;;
59998;SDS011;45859;51.378;6.736;2023-05-07T12:22:09;2.67;;;1.80;;
59998;SDS011;45859;51.378;6.736;2023-05-07T12:25:08;2.88;;;1.40;;
59998;SDS011;45859;51.378;6.736;2023-05-07T12:27:27;1.77;;;1.63;;
59998;SDS011;45859;51.378;6.736;2023-05-07T12:29:53;3.30;;;1.40;;
59998;SDS011;45859;51.378;6.736;2023-05-07T12:32:20;2.47;;;1.58;;
59998;SDS011;45859;51.378;6.736;2023-05-07T12:34:46;2.00;;;1.40;;
59998;SDS011;45859;51.378;6.736;2023-05-07T12:37:15;3.10;;;1.77;;
59998;SDS011;45859;51.378;6.736;2023-05-07T12:39:44;2.55;;;1.77;;
59998;SDS011;45859;51.378;6.736;2023-05-07T12:42:14;2.13;;;1.70;;
59998;SDS011;45859;51.378;6.736;2023-05-07T12:44:41;1.90;;;1.70;;
59998;SDS011;45859;51.378;6.736;2023-05-07T12:47:11;2.08;;;1.63;;
59998;SDS011;45859;51.378;6.736;2023-05-07T12:49:37;2.13;;;1.60;;
59998;SDS011;45859;51.378;6.736;2023-05-07T12:52:05;2.17;;;1.98;;
59998;SDS011;45859;51.378;6.736;2023-05-07T12:54:31;4.20;;;1.83;;
59998;SDS011;45859;51.378;6.736;2023-05-07T12:57:05;3.33;;;1.60;;
59998;SDS011;45859;51.378;6.736;2023-05-07T12:59:39;3.55;;;1.80;;
59998;SDS011;45859;51.378;6.736;2023-05-07T13:02:06;2.58;;;1.80;;
59998;SDS011;45859;51.378;6.736;2023-05-07T13:04:33;2.22;;;1.90;;
59998;SDS011;45859;51.378;6.736;2023-05-07T13:06:59;4.18;;;2.05;;
59998;SDS011;45859;51.378;6.736;2023-05-07T13:09:25;2.10;;;1.67;;
59998;SDS011;45859;51.378;6.736;2023-05-07T13:11:51;3.25;;;2.10;;
59998;SDS011;45859;51.378;6.736;2023-05-07T13:14:17;2.05;;;1.70;;
59998;SDS011;45859;51.378;6.736;2023-05-07T13:16:45;3.08;;;1.80;;
59998;SDS011;45859;51.378;6.736;2023-05-07T13:19:10;1.77;;;1.67;;
59998;SDS011;45859;51.378;6.736;2023-05-07T13:21:36;1.85;;;1.65;;
59998;SDS011;45859;51.378;6.736;2023-05-07T13:24:02;3.53;;;2.33;;
59998;SDS011;45859;51.378;6.736;2023-05-07T13:26:29;2.92;;;2.70;;
59998;SDS011;45859;51.378;6.736;2023-05-07T13:28:56;3.28;;;3.00;;
59998;SDS011;45859;51.378;6.736;2023-05-07T13:31:21;5.13;;;3.15;;
59998;SDS011;45859;51.378;6.736;2023-05-07T13:33:47;3.95;;;3.40;;
59998;SDS011;45859;51.378;6.736;2023-05-07T13:36:13;3.30;;;2.97;;
59998;SDS011;45859;51.378;6.736;2023-05-07T13:38:39;3.42;;;3.13;;
59998;SDS011;45859;51.378;6.736;2023-05-07T13:41:05;4.35;;;3.85;;
59998;SDS011;45859;51.378;6.736;2023-05-07T13:43:31;5.32;;;3.60;;
59998;SDS011;45859;51.378;6.736;2023-05-07T13:45:58;3.45;;;3.15;;
59998;SDS011;45859;51.378;6.736;2023-05-07T13:48:25;3.53;;;3.22;;
59998;SDS011;45859;51.378;6.736;2023-05-07T13:50:50;5.63;;;3.33;;
59998;SDS011;45859;51.378;6.736;2023-05-07T13:53:17;9.23;;;4.85;;
59998;SDS011;45859;51.378;6.736;2023-05-07T13:55:43;14.32;;;6.60;;
59998;SDS011;45859;51.378;6.736;2023-05-07T13:58:10;8.98;;;5.65;;
59998;SDS011;45859;51.378;6.736;2023-05-07T14:00:36;21.13;;;9.82;;
59998;SDS011;45859;51.378;6.736;2023-05-07T14:03:02;9.35;;;6.97;;
59998;SDS011;45859;51.378;6.736;2023-05-07T14:05:29;14.07;;;8.57;;
59998;SDS011;45859;51.378;6.736;2023-05-07T14:07:55;11.65;;;8.30;;
59998;SDS011;45859;51.378;6.736;2023-05-07T14:10:22;8.05;;;7.25;;
59998;SDS011;45859;51.378;6.736;2023-05-07T14:12:48;9.68;;;7.38;;
59998;SDS011;45859;51.378;6.736;2023-05-07T14:15:14;10.40;;;8.95;;
59998;SDS011;45859;51.378;6.736;2023-05-07T14:17:41;10.82;;;8.15;;
59998;SDS011;45859;51.378;6.736;2023-05-07T14:20:07;11.35;;;9.05;;
59998;SDS011;45859;51.378;6.736;2023-05-07T14:22:33;11.63;;;10.38;;
59998;SDS011;45859;51.378;6.736;2023-05-07T14:24:59;13.10;;;8.90;;
59998;SDS011;45859;51.378;6.736;2023-05-07T14:27:25;9.75;;;8.75;;
59998;SDS011;45859;51.378;6.736;2023-05-07T14:29:51;9.52;;;8.60;;
59998;SDS011;45859;51.378;6.736;2023-05-07T14:32:17;9.65;;;8.38;;
59998;SDS011;45859;51.378;6.736;2023-05-07T14:34:43;14.23;;;11.00;;
59998;SDS011;45859;51.378;6.736;2023-05-07T14:37:10;12.30;;;11.07;;
59998;SDS011;45859;51.378;6.736;2023-05-07T14:39:36;14.43;;;9.18;;
59998;SDS011;45859;51.378;6.736;2023-05-07T14:42:02;10.32;;;9.27;;
59998;SDS011;45859;51.378;6.736;2023-05-07T14:44:28;11.35;;;10.15;;
59998;SDS011;45859;51.378;6.736;2023-05-07T14:46:54;12.05;;;9.63;;
59998;SDS011;45859;51.378;6.736;2023-05-07T14:49:19;11.82;;;10.73;;
59998;SDS011;45859;51.378;6.736;2023-05-07T14:51:45;13.50;;;11.00;;
59998;SDS011;45859;51.378;6.736;2023-05-07T14:54:12;11.05;;;9.35;;
59998;SDS011;45859;51.378;6.736;2023-05-07T14:56:38;14.75;;;10.98;;
59998;SDS011;45859;51.378;6.736;2023-05-07T14:59:05;11.30;;;10.20;;
59998;SDS011;45859;51.378;6.736;2023-05-07T15:01:30;12.73;;;11.20;;
59998;SDS011;45859;51.378;6.736;2023-05-07T15:03:56;13.60;;;11.05;;
59998;SDS011;45859;51.378;6.736;2023-05-07T15:06:22;11.20;;;10.05;;
59998;SDS011;45859;51.378;6.736;2023-05-07T15:08:48;12.65;;;10.73;;
59998;SDS011;45859;51.378;6.736;2023-05-07T15:11:14;12.90;;;10.57;;
59998;SDS011;45859;51.378;6.736;2023-05-07T15:13:41;11.85;;;10.02;;
59998;SDS011;45859;51.378;6.736;2023-05-07T15:16:08;12.13;;;9.73;;
59998;SDS011;45859;51.378;6.736;2023-05-07T15:18:34;12.45;;;11.05;;
59998;SDS011;45859;51.378;6.736;2023-05-07T15:21:00;12.63;;;11.32;;